createdAt,value
2023-03-03T00:02:04.859Z,17.70
2023-03-03T00:04:33.186Z,14.80
2023-03-03T00:07:01.569Z,15.80
2023-03-03T00:09:29.758Z,14.80
2023-03-03T00:11:59.498Z,14.10
2023-03-03T00:14:32.352Z,14.50
2023-03-03T00:17:01.304Z,13.30
2023-03-03T00:19:30.061Z,14.10
2023-03-03T00:21:58.309Z,14.10
2023-03-03T00:24:36.933Z,12.80
2023-03-03T00:27:17.491Z,13.50
2023-03-03T00:29:52.431Z,13.10
2023-03-03T00:32:30.329Z,11.70
2023-03-03T00:35:03.020Z,13.30
2023-03-03T00:37:34.157Z,12.60
2023-03-03T00:40:22.709Z,12.90
2023-03-03T00:42:55.761Z,13.80
2023-03-03T00:45:36.380Z,13.20
2023-03-03T00:48:21.876Z,12.50
2023-03-03T00:50:50.793Z,13.20
2023-03-03T00:53:19.807Z,12.40
2023-03-03T00:55:49.407Z,12.10
2023-03-03T00:58:21.881Z,14.00
2023-03-03T01:00:52.770Z,13.00
2023-03-03T01:03:24.783Z,12.60
2023-03-03T01:05:53.813Z,13.80
2023-03-03T01:08:22.391Z,12.20
2023-03-03T01:10:57.001Z,12.50
2023-03-03T01:13:28.394Z,12.70
2023-03-03T01:15:56.531Z,13.70
2023-03-03T01:18:25.214Z,13.40
2023-03-03T01:20:53.317Z,13.10
2023-03-03T01:23:28.787Z,13.00
2023-03-03T01:25:58.135Z,12.30
2023-03-03T01:28:26.124Z,12.50
2023-03-03T01:30:54.214Z,13.20
2023-03-03T01:33:22.393Z,13.20
2023-03-03T01:35:50.671Z,12.70
2023-03-03T01:38:20.232Z,12.90
2023-03-03T01:40:55.777Z,12.20
2023-03-03T01:43:27.493Z,12.30
2023-03-03T01:45:58.479Z,12.80
2023-03-03T01:48:28.971Z,12.50
2023-03-03T01:51:10.183Z,13.10
2023-03-03T01:53:46.522Z,12.80
2023-03-03T01:56:16.152Z,12.60
2023-03-03T01:58:47.457Z,13.90
2023-03-03T02:01:17.758Z,12.70
2023-03-03T02:03:46.015Z,12.60
2023-03-03T02:06:16.013Z,13.20
2023-03-03T02:09:13.578Z,13.40
2023-03-03T02:11:43.108Z,12.80
2023-03-03T02:14:11.836Z,14.00
2023-03-03T02:19:17.234Z,13.30
2023-03-03T02:21:45.358Z,12.80
2023-03-03T02:24:27.656Z,13.20
2023-03-03T02:26:56.405Z,13.00
2023-03-03T02:29:24.785Z,11.70
2023-03-03T02:31:54.000Z,12.70
2023-03-03T02:34:22.995Z,12.80
2023-03-03T02:36:54.738Z,11.10
2023-03-03T02:39:27.343Z,12.40
2023-03-03T02:42:18.654Z,12.30
2023-03-03T02:44:55.100Z,12.00
2023-03-03T02:47:25.111Z,12.20
2023-03-03T02:50:00.864Z,12.70
2023-03-03T02:52:29.026Z,12.10
2023-03-03T02:54:57.213Z,12.90
2023-03-03T02:57:25.686Z,14.00
2023-03-03T02:59:55.599Z,12.60
2023-03-03T03:02:23.792Z,15.00
2023-03-03T03:04:51.911Z,14.60
2023-03-03T03:07:22.579Z,14.40
2023-03-03T03:09:50.763Z,15.10
2023-03-03T03:12:19.410Z,14.20
2023-03-03T03:14:49.288Z,15.90
2023-03-03T03:17:18.215Z,15.50
2023-03-03T03:19:47.558Z,14.70
2023-03-03T03:22:16.449Z,18.30
2023-03-03T03:24:44.803Z,16.40
2023-03-03T03:27:13.774Z,16.70
2023-03-03T03:29:43.758Z,16.00
2023-03-03T03:32:13.174Z,13.70
2023-03-03T03:34:41.402Z,13.70
2023-03-03T03:37:10.013Z,13.00
2023-03-03T03:39:58.840Z,13.50
2023-03-03T03:42:27.838Z,14.30
2023-03-03T03:44:56.153Z,13.40
2023-03-03T03:47:24.697Z,12.20
2023-03-03T03:49:53.048Z,12.30
2023-03-03T03:52:21.656Z,11.30
2023-03-03T03:54:50.149Z,12.50
2023-03-03T03:57:18.529Z,12.00
2023-03-03T04:00:11.051Z,12.90
2023-03-03T04:02:51.471Z,11.90
2023-03-03T04:05:20.858Z,11.70
2023-03-03T04:09:34.964Z,12.90
2023-03-03T04:12:04.008Z,11.70
2023-03-03T04:14:34.406Z,12.30
2023-03-03T04:17:03.630Z,12.30
2023-03-03T04:19:32.007Z,12.50
2023-03-03T04:22:00.060Z,12.20
2023-03-03T04:24:28.289Z,12.20
2023-03-03T04:26:57.026Z,12.60
2023-03-03T04:29:25.303Z,11.60
2023-03-03T04:31:53.408Z,12.20
2023-03-03T04:34:21.893Z,12.00
2023-03-03T04:36:50.134Z,11.10
2023-03-03T04:39:23.627Z,12.40
2023-03-03T04:41:52.318Z,13.30
2023-03-03T04:44:21.550Z,12.20
2023-03-03T04:46:50.473Z,13.00
2023-03-03T04:49:19.333Z,12.30
2023-03-03T04:51:49.269Z,12.30
2023-03-03T04:54:17.989Z,13.30
2023-03-03T04:56:46.596Z,12.90
2023-03-03T04:59:15.476Z,13.60
2023-03-03T05:01:46.801Z,13.10
2023-03-03T05:04:16.653Z,11.90
2023-03-03T05:06:46.785Z,13.60
2023-03-03T05:09:15.154Z,13.00
2023-03-03T05:11:43.453Z,13.40
2023-03-03T05:14:12.549Z,12.90
2023-03-03T05:16:41.176Z,12.40
2023-03-03T05:19:09.258Z,13.00
2023-03-03T05:21:41.935Z,13.40
2023-03-03T05:24:10.838Z,13.30
2023-03-03T05:26:42.092Z,15.00
2023-03-03T05:29:10.515Z,14.00
2023-03-03T05:31:38.621Z,12.80
2023-03-03T05:34:07.402Z,12.90
2023-03-03T05:36:35.402Z,12.60
2023-03-03T05:39:03.540Z,12.40
2023-03-03T05:41:31.768Z,12.80
2023-03-03T05:44:05.810Z,12.90
2023-03-03T05:46:34.144Z,12.10
2023-03-03T05:49:02.368Z,11.80
2023-03-03T05:51:30.968Z,11.50
2023-03-03T05:53:59.252Z,12.70
2023-03-03T05:56:27.337Z,13.20
2023-03-03T05:58:56.157Z,13.10
2023-03-03T06:01:24.564Z,12.80
2023-03-03T06:03:52.513Z,12.60
2023-03-03T06:06:20.491Z,15.10
2023-03-03T06:08:49.210Z,12.30
2023-03-03T06:11:19.544Z,14.10
2023-03-03T06:14:06.031Z,13.50
2023-03-03T06:16:35.371Z,13.00
2023-03-03T06:19:03.716Z,14.00
2023-03-03T06:21:32.247Z,14.90
2023-03-03T06:24:00.452Z,15.90
2023-03-03T06:26:28.752Z,15.90
2023-03-03T06:28:56.920Z,13.30
2023-03-03T06:31:25.840Z,14.30
2023-03-03T06:33:54.960Z,14.00
2023-03-03T06:36:28.851Z,12.90
2023-03-03T06:38:57.000Z,13.00
2023-03-03T06:41:25.315Z,11.60
2023-03-03T06:43:54.590Z,12.20
2023-03-03T06:46:22.964Z,13.40
2023-03-03T06:48:52.856Z,12.40
2023-03-03T06:51:31.689Z,10.80
2023-03-03T06:54:01.504Z,11.40
2023-03-03T06:56:29.725Z,11.20
2023-03-03T06:58:58.818Z,11.60
2023-03-03T07:01:27.026Z,11.20
2023-03-03T07:03:55.337Z,10.40
2023-03-03T07:06:25.408Z,10.40
2023-03-03T07:08:53.816Z,10.20
2023-03-03T07:11:22.778Z,9.20
2023-03-03T07:13:52.436Z,10.70
2023-03-03T07:16:25.177Z,10.40
2023-03-03T07:18:55.236Z,10.10
2023-03-03T07:21:33.698Z,9.80
2023-03-03T07:24:10.412Z,9.20
2023-03-03T07:26:40.633Z,10.00
2023-03-03T07:29:27.782Z,9.90
2023-03-03T07:31:58.981Z,9.80
2023-03-03T07:34:35.960Z,10.20
2023-03-03T07:37:29.661Z,9.80
2023-03-03T07:39:57.829Z,9.10
2023-03-03T07:42:40.763Z,8.90
2023-03-03T07:45:32.584Z,8.90
2023-03-03T07:48:40.221Z,8.20
2023-03-03T07:51:36.994Z,8.50
2023-03-03T07:54:28.721Z,7.50
2023-03-03T07:57:23.705Z,7.50
2023-03-03T07:59:56.152Z,8.40
2023-03-03T08:02:33.546Z,8.30
2023-03-03T08:05:04.674Z,8.90
2023-03-03T08:07:33.606Z,7.70
2023-03-03T08:10:02.390Z,5.90
2023-03-03T08:12:42.137Z,6.10
2023-03-03T08:15:27.874Z,7.10
2023-03-03T08:18:02.273Z,6.70
2023-03-03T08:20:44.655Z,6.70
2023-03-03T08:23:13.130Z,6.80
2023-03-03T08:25:42.524Z,8.30
2023-03-03T08:28:11.367Z,8.10
2023-03-03T08:30:40.828Z,8.10
2023-03-03T08:33:09.940Z,7.90
2023-03-03T08:35:38.102Z,8.10
2023-03-03T08:38:06.394Z,8.50
2023-03-03T08:40:35.167Z,8.90
2023-03-03T08:43:06.372Z,9.50
2023-03-03T08:45:34.815Z,8.40
2023-03-03T08:48:05.637Z,9.00
2023-03-03T08:50:34.856Z,8.50
2023-03-03T08:53:03.437Z,7.40
2023-03-03T08:55:38.516Z,7.00
2023-03-03T09:00:54.560Z,6.90
2023-03-03T09:03:50.925Z,7.90
2023-03-03T09:06:18.985Z,8.10
2023-03-03T09:08:48.485Z,7.80
2023-03-03T09:11:22.274Z,7.70
2023-03-03T09:13:54.169Z,8.70
2023-03-03T09:16:22.476Z,7.10
2023-03-03T09:18:54.424Z,7.90
2023-03-03T09:21:27.064Z,6.60
2023-03-03T09:23:57.300Z,7.10
2023-03-03T09:26:31.686Z,6.90
2023-03-03T09:29:15.298Z,7.50
2023-03-03T09:31:43.771Z,6.30
2023-03-03T09:34:25.653Z,6.80
2023-03-03T09:36:54.644Z,8.10
2023-03-03T09:39:23.503Z,7.30
2023-03-03T09:42:16.348Z,6.50
2023-03-03T09:45:11.691Z,5.90
2023-03-03T09:47:42.528Z,6.40
2023-03-03T09:50:31.880Z,7.20
2023-03-03T09:53:27.692Z,6.90
2023-03-03T09:56:01.451Z,6.50
2023-03-03T09:58:49.244Z,6.40
2023-03-03T10:01:20.074Z,8.10
2023-03-03T10:03:55.134Z,8.30
2023-03-03T10:06:29.499Z,6.60
2023-03-03T10:08:57.556Z,7.80
2023-03-03T10:12:02.472Z,7.20
2023-03-03T10:14:44.049Z,7.30
2023-03-03T10:17:12.355Z,6.60
2023-03-03T10:19:51.359Z,5.90
2023-03-03T10:22:52.915Z,6.50
2023-03-03T10:25:25.641Z,6.00
2023-03-03T10:28:11.906Z,5.90
2023-03-03T10:30:48.551Z,6.20
2023-03-03T10:33:29.199Z,6.30
2023-03-03T10:36:21.291Z,6.60
2023-03-03T10:39:04.150Z,6.30
2023-03-03T10:41:39.164Z,6.80
2023-03-03T10:44:28.861Z,6.90
2023-03-03T10:47:32.215Z,7.60
2023-03-03T10:50:21.742Z,7.50
2023-03-03T10:53:11.542Z,7.60
2023-03-03T10:55:50.272Z,8.50
2023-03-03T10:58:30.631Z,8.10
2023-03-03T11:01:24.510Z,8.50
2023-03-03T11:04:02.579Z,7.10
2023-03-03T11:06:42.891Z,7.20
2023-03-03T11:09:31.601Z,7.00
2023-03-03T11:12:04.372Z,7.10
2023-03-03T11:14:48.535Z,7.00
2023-03-03T11:17:52.646Z,7.70
2023-03-03T11:20:32.617Z,7.50
2023-03-03T11:23:13.151Z,8.00
2023-03-03T11:25:44.560Z,8.60
2023-03-03T11:28:47.513Z,7.80
2023-03-03T11:31:41.770Z,8.10
2023-03-03T11:34:23.464Z,5.00
2023-03-03T11:37:01.947Z,5.30
2023-03-03T11:39:31.807Z,5.40
2023-03-03T11:42:38.747Z,4.30
2023-03-03T11:45:15.279Z,5.50
2023-03-03T11:48:13.062Z,5.60
2023-03-03T11:51:02.991Z,5.60
2023-03-03T11:56:06.110Z,5.00
2023-03-03T11:59:00.297Z,5.00
2023-03-03T12:02:24.453Z,4.80
2023-03-03T12:04:55.369Z,4.40
2023-03-03T12:07:49.939Z,4.20
2023-03-03T12:10:23.018Z,4.60
2023-03-03T12:13:17.423Z,4.20
2023-03-03T12:15:55.661Z,4.40
2023-03-03T12:18:36.098Z,4.50
2023-03-03T12:21:08.568Z,4.50
2023-03-03T12:24:14.391Z,4.40
2023-03-03T12:26:49.190Z,5.10
2023-03-03T12:29:49.625Z,4.60
2023-03-03T12:32:46.166Z,4.70
2023-03-03T12:35:24.742Z,4.50
2023-03-03T12:38:13.396Z,5.20
2023-03-03T12:40:46.646Z,5.10
2023-03-03T12:44:08.825Z,4.20
2023-03-03T12:47:20.198Z,4.90
2023-03-03T12:50:12.530Z,4.60
2023-03-03T12:53:03.623Z,4.50
2023-03-03T12:56:09.385Z,4.90
2023-03-03T12:58:45.201Z,4.90
2023-03-03T13:01:30.444Z,4.80
2023-03-03T13:04:08.862Z,5.10
2023-03-03T13:06:57.234Z,5.30
2023-03-03T13:09:38.147Z,6.20
2023-03-03T13:12:16.573Z,5.80
2023-03-03T13:14:57.108Z,5.50
2023-03-03T13:17:36.691Z,4.90
2023-03-03T13:20:19.699Z,5.10
2023-03-03T13:22:52.330Z,4.70
2023-03-03T13:25:32.642Z,4.70
2023-03-03T13:28:38.893Z,4.30
2023-03-03T13:31:20.974Z,4.80
2023-03-03T13:33:56.614Z,4.60
2023-03-03T13:36:51.038Z,4.20
2023-03-03T13:39:28.671Z,4.40
2023-03-03T13:42:01.810Z,4.00
2023-03-03T13:44:41.360Z,4.10
2023-03-03T13:47:39.832Z,4.60
2023-03-03T13:50:14.089Z,4.90
2023-03-03T13:53:24.617Z,3.90
2023-03-03T13:56:23.723Z,4.20
2023-03-03T13:59:17.290Z,4.40
2023-03-03T14:02:06.578Z,4.70
2023-03-03T14:04:53.084Z,4.40
2023-03-03T14:07:27.395Z,4.70
2023-03-03T14:10:32.845Z,5.40
2023-03-03T14:13:06.750Z,5.50
2023-03-03T14:15:55.955Z,4.90
2023-03-03T14:18:39.182Z,5.30
2023-03-03T14:21:14.939Z,4.10
2023-03-03T14:23:50.650Z,4.60
2023-03-03T14:26:18.555Z,4.70
2023-03-03T14:28:51.120Z,4.90
2023-03-03T14:31:39.589Z,4.40
2023-03-03T14:34:29.051Z,4.70
2023-03-03T14:37:42.751Z,4.10
2023-03-03T14:40:16.970Z,4.70
2023-03-03T14:42:54.046Z,5.60
2023-03-03T14:45:32.291Z,5.40
2023-03-03T14:48:00.657Z,5.40
2023-03-03T14:50:37.814Z,6.00
2023-03-03T14:53:29.282Z,6.80
2023-03-03T14:55:57.720Z,7.50
2023-03-03T14:58:40.810Z,9.40
2023-03-03T15:01:28.802Z,10.30
2023-03-03T15:03:57.057Z,9.70
2023-03-03T15:06:36.219Z,12.10
2023-03-03T15:09:43.176Z,10.80
2023-03-03T15:12:24.972Z,10.50
2023-03-03T15:15:02.728Z,12.70
2023-03-03T15:17:37.059Z,11.90
2023-03-03T15:20:43.029Z,12.80
2023-03-03T15:23:36.349Z,12.60
2023-03-03T15:26:32.825Z,14.50
2023-03-03T15:29:17.784Z,15.00
2023-03-03T15:32:04.156Z,13.80
2023-03-03T15:34:47.459Z,15.40
2023-03-03T15:37:28.598Z,13.90
2023-03-03T15:40:06.622Z,14.00
2023-03-03T15:42:48.311Z,15.40
2023-03-03T15:47:57.411Z,14.60
2023-03-03T15:50:31.830Z,14.80
2023-03-03T15:53:35.628Z,12.90
2023-03-03T15:56:21.994Z,13.70
2023-03-03T15:59:09.084Z,13.30
2023-03-03T16:01:45.212Z,14.20
2023-03-03T16:04:15.842Z,13.10
2023-03-03T16:07:04.022Z,14.60
2023-03-03T16:09:47.766Z,15.00
2023-03-03T16:12:55.582Z,13.50
2023-03-03T16:15:35.825Z,15.20
2023-03-03T16:18:20.496Z,12.80
2023-03-03T16:20:57.462Z,13.30
2023-03-03T16:27:18.650Z,14.20
2023-03-03T16:30:25.160Z,14.60
2023-03-03T16:33:10.534Z,12.30
2023-03-03T16:35:41.700Z,12.00
2023-03-03T16:38:15.382Z,13.30
2023-03-03T16:40:47.363Z,11.70
2023-03-03T16:44:19.628Z,12.10
2023-03-03T16:46:49.293Z,11.30
2023-03-03T16:49:25.644Z,10.70
2023-03-03T16:52:02.610Z,8.80
2023-03-03T16:54:39.608Z,10.20
2023-03-03T16:57:21.875Z,10.00
2023-03-03T16:59:57.610Z,8.80
2023-03-03T17:03:16.293Z,9.60
2023-03-03T17:06:12.082Z,9.30
2023-03-03T17:08:39.075Z,8.80
2023-03-03T17:11:36.823Z,8.90
2023-03-03T17:14:30.794Z,10.20
2023-03-03T17:17:03.147Z,10.70
2023-03-03T17:19:41.012Z,9.80
2023-03-03T17:22:27.393Z,11.40
2023-03-03T17:25:00.282Z,11.50
2023-03-03T17:27:35.894Z,11.30
2023-03-03T17:30:10.159Z,11.10
2023-03-03T17:33:04.851Z,10.20
2023-03-03T17:35:58.157Z,8.50
2023-03-03T17:38:29.558Z,9.70
2023-03-03T17:41:22.484Z,10.50
2023-03-03T17:44:10.833Z,9.90
2023-03-03T17:46:54.369Z,9.00
2023-03-03T17:49:21.660Z,9.40
2023-03-03T17:52:16.516Z,7.30
2023-03-03T17:55:16.129Z,9.10
2023-03-03T17:57:57.816Z,8.70
2023-03-03T18:01:06.648Z,9.00
2023-03-03T18:03:56.579Z,10.40
2023-03-03T18:06:41.919Z,10.60
2023-03-03T18:09:35.931Z,9.00
2023-03-03T18:12:17.289Z,8.90
2023-03-03T18:15:07.092Z,8.40
2023-03-03T18:17:37.652Z,8.50
2023-03-03T18:20:41.431Z,8.90
2023-03-03T18:23:29.860Z,9.40
2023-03-03T18:25:59.281Z,9.60
2023-03-03T18:28:46.122Z,9.10
2023-03-03T18:31:25.720Z,9.50
2023-03-03T18:34:08.662Z,9.50
2023-03-03T18:36:57.920Z,8.30
2023-03-03T18:39:38.363Z,9.50
2023-03-03T18:42:25.480Z,10.60
2023-03-03T18:44:52.059Z,10.40
2023-03-03T18:47:21.731Z,11.60
2023-03-03T18:49:54.987Z,12.30
2023-03-03T18:52:24.382Z,11.70
2023-03-03T18:55:09.964Z,12.00
2023-03-03T18:57:37.063Z,12.10
2023-03-03T19:00:36.137Z,10.50
2023-03-03T19:03:03.279Z,12.90
2023-03-03T19:05:45.912Z,12.70
2023-03-03T19:08:25.221Z,13.10
2023-03-03T19:10:57.182Z,13.30
2023-03-03T19:13:32.722Z,13.90
2023-03-03T19:16:02.763Z,14.30
2023-03-03T19:18:55.752Z,15.30
2023-03-03T19:24:27.782Z,14.80
2023-03-03T19:27:15.545Z,17.90
2023-03-03T19:29:45.639Z,18.60
2023-03-03T19:32:36.858Z,15.70
2023-03-03T19:35:41.435Z,17.10
2023-03-03T19:38:14.683Z,17.90
2023-03-03T19:41:13.180Z,16.90
2023-03-03T19:44:05.617Z,17.40
2023-03-03T19:46:58.680Z,19.40
2023-03-03T19:49:49.231Z,18.50
2023-03-03T19:52:25.422Z,18.70
2023-03-03T19:54:57.669Z,20.80
2023-03-03T19:57:53.580Z,21.50
2023-03-03T20:00:29.105Z,19.40
2023-03-03T20:03:00.326Z,21.80
2023-03-03T20:06:02.182Z,21.30
2023-03-03T20:09:04.696Z,19.00
2023-03-03T20:11:49.999Z,22.20
2023-03-03T20:14:36.346Z,22.60
2023-03-03T20:17:23.569Z,23.20
2023-03-03T20:20:18.042Z,23.80
2023-03-03T20:23:08.132Z,22.90
2023-03-03T20:26:01.839Z,22.10
2023-03-03T20:28:43.525Z,20.80
2023-03-03T20:31:25.132Z,19.90
2023-03-03T20:34:00.857Z,23.30
2023-03-03T20:36:47.680Z,19.60
2023-03-03T20:39:41.062Z,20.70
2023-03-03T20:42:26.296Z,22.90
2023-03-03T20:44:54.202Z,19.40
2023-03-03T20:47:23.289Z,21.00
2023-03-03T20:50:01.980Z,19.30
2023-03-03T20:52:47.475Z,19.60
2023-03-03T20:55:29.579Z,19.80
2023-03-03T20:58:00.409Z,21.00
2023-03-03T21:00:48.952Z,17.40
2023-03-03T21:03:33.636Z,20.70
2023-03-03T21:06:06.925Z,22.30
2023-03-03T21:08:54.132Z,19.50
2023-03-03T21:11:21.969Z,22.50
2023-03-03T21:13:53.558Z,22.20
2023-03-03T21:16:21.295Z,18.10
2023-03-03T21:19:10.626Z,21.10
2023-03-03T21:21:41.948Z,19.20
2023-03-03T21:24:14.789Z,20.70
2023-03-03T21:27:01.252Z,20.50
2023-03-03T21:29:33.646Z,21.40
2023-03-03T21:32:04.381Z,19.20
2023-03-03T21:34:33.386Z,21.60
2023-03-03T21:37:09.185Z,20.50
2023-03-03T21:39:39.083Z,20.60
2023-03-03T21:42:19.824Z,20.50
2023-03-03T21:44:49.018Z,21.20
2023-03-03T21:47:21.507Z,19.30
2023-03-03T21:49:59.743Z,19.00
2023-03-03T21:52:26.539Z,19.10
2023-03-03T21:54:53.694Z,20.70
2023-03-03T21:57:26.180Z,20.40
2023-03-03T21:59:52.917Z,18.10
2023-03-03T22:02:19.615Z,21.10
2023-03-03T22:04:46.197Z,20.00
2023-03-03T22:07:13.133Z,18.70
2023-03-03T22:09:41.610Z,20.30
2023-03-03T22:12:08.719Z,18.10
2023-03-03T22:14:37.858Z,21.50
2023-03-03T22:17:06.034Z,21.00
2023-03-03T22:19:33.586Z,22.00
2023-03-03T22:22:00.211Z,21.20
2023-03-03T22:24:27.006Z,18.00
2023-03-03T22:26:53.625Z,19.30
2023-03-03T22:29:22.199Z,19.80
2023-03-03T22:31:50.139Z,19.60
2023-03-03T22:34:17.196Z,20.10
2023-03-03T22:36:44.054Z,18.40
2023-03-03T22:39:14.687Z,17.10
2023-03-03T22:41:42.113Z,20.50
2023-03-03T22:44:09.515Z,19.60
2023-03-03T22:46:36.640Z,19.00
2023-03-03T22:49:03.707Z,19.30
2023-03-03T22:51:30.521Z,22.50
2023-03-03T22:53:57.184Z,19.60
2023-03-03T22:56:23.829Z,16.00
2023-03-03T22:58:50.430Z,19.80
2023-03-03T23:01:19.854Z,19.30
2023-03-03T23:03:46.593Z,18.50
2023-03-03T23:06:13.635Z,18.20
2023-03-03T23:08:40.389Z,17.00
2023-03-03T23:11:08.602Z,17.40
2023-03-03T23:13:35.362Z,19.30
2023-03-03T23:16:02.383Z,17.00
2023-03-03T23:18:29.347Z,20.30
2023-03-03T23:20:56.644Z,18.60
2023-03-03T23:23:23.799Z,18.10
2023-03-03T23:25:52.030Z,20.40
2023-03-03T23:28:19.515Z,19.10
2023-03-03T23:30:46.488Z,19.90
2023-03-03T23:33:14.055Z,19.30
2023-03-03T23:35:40.758Z,18.20
2023-03-03T23:38:14.638Z,19.00
2023-03-03T23:40:41.750Z,17.60
2023-03-03T23:43:08.341Z,17.30
2023-03-03T23:45:35.275Z,17.00
2023-03-03T23:48:02.046Z,15.90
2023-03-03T23:50:28.901Z,18.50
2023-03-03T23:52:56.181Z,17.40
2023-03-03T23:55:22.739Z,17.30
2023-03-03T23:57:49.719Z,19.50
